ANA542 RJFK-RJOO
Flight info
| Callsign | ANA542 |
|---|---|
| Flight time | 0h 54m |
| Altitude | 35000 |
| Route | MIDAI M750 MADOG Y753 IZUMI |
| Aircraft | A20N/M-SDE2E3GHIJ1J3J4J5LM1ORWXYZ/LB1D1 |
Departure
| Time | 2026-04-27 12:49 |
|---|---|
| Airport | Kagoshima Airport (RJFK) |
Arrival
| Time | 2026-04-27 13:43 |
|---|---|
| Airport | Osaka Itami International Airport (RJOO) |
| Time | Latitude | Longitude | Altitude | Speed | Heading |
|---|---|---|---|---|---|
| 2026-04-27 12:28 | 31.80169 | 130.71658 | 906 ft | 0 kts | 240° |
| 2026-04-27 12:38 | 31.80172 | 130.71665 | 906 ft | 4 kts | 240° |
| 2026-04-27 12:39 | 31.80186 | 130.71692 | 907 ft | 4 kts | 238° |
| 2026-04-27 12:39 | 31.80201 | 130.71718 | 908 ft | 4 kts | 235° |
| 2026-04-27 12:39 | 31.80217 | 130.71744 | 908 ft | 4 kts | 230° |
| 2026-04-27 12:39 | 31.80235 | 130.71766 | 908 ft | 4 kts | 211° |
| 2026-04-27 12:40 | 31.80255 | 130.71773 | 909 ft | 1 kts | 150° |
| 2026-04-27 12:40 | 31.80259 | 130.71770 | 909 ft | 0 kts | 150° |
| 2026-04-27 12:42 | 31.80241 | 130.71783 | 908 ft | 6 kts | 150° |
| 2026-04-27 12:43 | 31.80181 | 130.71823 | 907 ft | 14 kts | 150° |
| 2026-04-27 12:43 | 31.80080 | 130.71892 | 906 ft | 17 kts | 150° |
| 2026-04-27 12:43 | 31.79968 | 130.71967 | 904 ft | 21 kts | 150° |
| 2026-04-27 12:43 | 31.79843 | 130.72052 | 900 ft | 22 kts | 150° |
| 2026-04-27 12:44 | 31.79718 | 130.72136 | 898 ft | 22 kts | 150° |
| 2026-04-27 12:44 | 31.79574 | 130.72233 | 896 ft | 25 kts | 150° |
| 2026-04-27 12:44 | 31.79442 | 130.72322 | 896 ft | 20 kts | 150° |
| 2026-04-27 12:44 | 31.79321 | 130.72403 | 895 ft | 21 kts | 150° |
| 2026-04-27 12:45 | 31.79204 | 130.72484 | 895 ft | 20 kts | 149° |
| 2026-04-27 12:45 | 31.79120 | 130.72559 | 893 ft | 11 kts | 113° |
| 2026-04-27 12:45 | 31.79132 | 130.72623 | 891 ft | 6 kts | 58° |
| 2026-04-27 12:45 | 31.79137 | 130.72633 | 891 ft | 0 kts | 59° |
| 2026-04-27 12:47 | 31.79146 | 130.72650 | 890 ft | 7 kts | 59° |
| 2026-04-27 12:47 | 31.79162 | 130.72682 | 889 ft | 5 kts | 59° |
| 2026-04-27 12:48 | 31.79203 | 130.72706 | 890 ft | 6 kts | 350° |
| 2026-04-27 12:48 | 31.79219 | 130.72697 | 891 ft | 0 kts | 330° |
| 2026-04-27 12:48 | 31.79279 | 130.72656 | 892 ft | 37 kts | 330° |
| 2026-04-27 12:48 | 31.79712 | 130.72362 | 898 ft | 104 kts | 330° |
| 2026-04-27 12:49 | 31.80494 | 130.71830 | 917 ft | 153 kts | 329° |
| 2026-04-27 12:49 | 31.81427 | 130.71202 | 1464 ft | 153 kts | 329° |
| 2026-04-27 12:49 | 31.82336 | 130.70572 | 2176 ft | 151 kts | 329° |
| 2026-04-27 12:49 | 31.83249 | 130.69934 | 2800 ft | 157 kts | 329° |
| 2026-04-27 12:50 | 31.84280 | 130.69340 | 3159 ft | 177 kts | 347° |
| 2026-04-27 12:50 | 31.85565 | 130.69429 | 3684 ft | 198 kts | 20° |
| 2026-04-27 12:50 | 31.86705 | 130.70475 | 4118 ft | 226 kts | 55° |
| 2026-04-27 12:50 | 31.87242 | 130.72294 | 4707 ft | 250 kts | 88° |
| 2026-04-27 12:51 | 31.86928 | 130.74342 | 5390 ft | 270 kts | 113° |
| 2026-04-27 12:51 | 31.86073 | 130.76360 | 6298 ft | 280 kts | 119° |
| 2026-04-27 12:51 | 31.85149 | 130.78407 | 7332 ft | 286 kts | 117° |
| 2026-04-27 12:51 | 31.84160 | 130.80464 | 8297 ft | 293 kts | 128° |
| 2026-04-27 12:52 | 31.82707 | 130.82161 | 9244 ft | 297 kts | 147° |
| 2026-04-27 12:52 | 31.80922 | 130.83442 | 10199 ft | 303 kts | 152° |
| 2026-04-27 12:52 | 31.79048 | 130.84763 | 10756 ft | 326 kts | 152° |
| 2026-04-27 12:52 | 31.77039 | 130.86196 | 11163 ft | 349 kts | 152° |
| 2026-04-27 12:53 | 31.72776 | 130.89272 | 12734 ft | 365 kts | 152° |
| 2026-04-27 12:53 | 31.70627 | 130.90828 | 13574 ft | 370 kts | 152° |
| 2026-04-27 12:53 | 31.68386 | 130.92449 | 14371 ft | 376 kts | 152° |
| 2026-04-27 12:54 | 31.66145 | 130.94067 | 15143 ft | 381 kts | 153° |
| 2026-04-27 12:54 | 31.63953 | 130.95860 | 15866 ft | 391 kts | 141° |
| 2026-04-27 12:54 | 31.62239 | 130.98342 | 16556 ft | 404 kts | 123° |
| 2026-04-27 12:54 | 31.61182 | 131.01430 | 17226 ft | 415 kts | 104° |
| 2026-04-27 12:55 | 31.60866 | 131.04825 | 17868 ft | 423 kts | 91° |
| 2026-04-27 12:55 | 31.60936 | 131.08301 | 18497 ft | 429 kts | 88° |
| 2026-04-27 12:55 | 31.61042 | 131.11820 | 19092 ft | 434 kts | 89° |
| 2026-04-27 12:55 | 31.61083 | 131.15393 | 19636 ft | 440 kts | 90° |
| 2026-04-27 12:56 | 31.61055 | 131.19006 | 20223 ft | 444 kts | 91° |
| 2026-04-27 12:56 | 31.60984 | 131.22648 | 20783 ft | 449 kts | 92° |
| 2026-04-27 12:56 | 31.60891 | 131.26343 | 21341 ft | 455 kts | 92° |
| 2026-04-27 12:56 | 31.60790 | 131.30087 | 21834 ft | 462 kts | 92° |
| 2026-04-27 12:57 | 31.60761 | 131.33870 | 22412 ft | 466 kts | 85° |
| 2026-04-27 12:57 | 31.61341 | 131.37576 | 22960 ft | 470 kts | 70° |
| 2026-04-27 12:57 | 31.62650 | 131.41085 | 23485 ft | 470 kts | 56° |
| 2026-04-27 12:57 | 31.64343 | 131.44396 | 23975 ft | 474 kts | 54° |
| 2026-04-27 12:58 | 31.66059 | 131.47718 | 24499 ft | 476 kts | 54° |
| 2026-04-27 12:58 | 31.67779 | 131.51054 | 25027 ft | 479 kts | 54° |
| 2026-04-27 12:58 | 31.69510 | 131.54424 | 25504 ft | 483 kts | 54° |
| 2026-04-27 12:58 | 31.71248 | 131.57823 | 25983 ft | 486 kts | 54° |
| 2026-04-27 12:59 | 31.72971 | 131.61204 | 26456 ft | 489 kts | 54° |
| 2026-04-27 12:59 | 31.74729 | 131.64654 | 26917 ft | 493 kts | 54° |
| 2026-04-27 12:59 | 31.76496 | 131.68128 | 27366 ft | 496 kts | 54° |
| 2026-04-27 12:59 | 31.78270 | 131.71617 | 27801 ft | 499 kts | 54° |
| 2026-04-27 13:00 | 31.80056 | 131.75133 | 28228 ft | 502 kts | 54° |
| 2026-04-27 13:00 | 31.81853 | 131.78674 | 28644 ft | 505 kts | 54° |
| 2026-04-27 13:00 | 31.83660 | 131.82237 | 29040 ft | 508 kts | 54° |
| 2026-04-27 13:00 | 31.85475 | 131.85821 | 29427 ft | 511 kts | 54° |
| 2026-04-27 13:01 | 31.87276 | 131.89381 | 29790 ft | 514 kts | 54° |
| 2026-04-27 13:01 | 31.89112 | 131.93012 | 30144 ft | 517 kts | 54° |
| 2026-04-27 13:01 | 31.90957 | 131.96664 | 30489 ft | 520 kts | 54° |
| 2026-04-27 13:01 | 31.92808 | 132.00332 | 30834 ft | 522 kts | 54° |
| 2026-04-27 13:02 | 31.94672 | 132.04031 | 31202 ft | 524 kts | 54° |
| 2026-04-27 13:02 | 31.96531 | 132.07723 | 31630 ft | 523 kts | 54° |
| 2026-04-27 13:02 | 31.98385 | 132.11409 | 32078 ft | 522 kts | 54° |
| 2026-04-27 13:02 | 32.00236 | 132.15093 | 32520 ft | 522 kts | 54° |
| 2026-04-27 13:03 | 32.02059 | 132.18723 | 32946 ft | 521 kts | 54° |
| 2026-04-27 13:03 | 32.03925 | 132.22443 | 33387 ft | 520 kts | 54° |
| 2026-04-27 13:03 | 32.05760 | 132.26102 | 33811 ft | 519 kts | 54° |
| 2026-04-27 13:03 | 32.07570 | 132.29716 | 34199 ft | 518 kts | 54° |
| 2026-04-27 13:04 | 32.09400 | 132.33374 | 34551 ft | 517 kts | 54° |
| 2026-04-27 13:04 | 32.11224 | 132.37022 | 34873 ft | 516 kts | 54° |
| 2026-04-27 13:04 | 32.13048 | 132.40669 | 34976 ft | 514 kts | 53° |
| 2026-04-27 13:04 | 32.14912 | 132.44267 | 34995 ft | 513 kts | 52° |
| 2026-04-27 13:05 | 32.18709 | 132.51393 | 34981 ft | 513 kts | 52° |
| 2026-04-27 13:05 | 32.22476 | 132.58501 | 34991 ft | 513 kts | 52° |
| 2026-04-27 13:06 | 32.26243 | 132.65662 | 34991 ft | 513 kts | 53° |
| 2026-04-27 13:06 | 32.29395 | 132.71672 | 34981 ft | 513 kts | 53° |
| 2026-04-27 13:07 | 32.33130 | 132.78805 | 34990 ft | 513 kts | 53° |
| 2026-04-27 13:07 | 32.36892 | 132.86003 | 34977 ft | 514 kts | 53° |
| 2026-04-27 13:08 | 32.40646 | 132.93200 | 34977 ft | 514 kts | 53° |
| 2026-04-27 13:08 | 32.44395 | 133.00401 | 34979 ft | 514 kts | 53° |
| 2026-04-27 13:09 | 32.48148 | 133.07624 | 34980 ft | 514 kts | 53° |
| 2026-04-27 13:09 | 32.51893 | 133.14845 | 34977 ft | 515 kts | 53° |
| 2026-04-27 13:10 | 32.55637 | 133.22077 | 34979 ft | 515 kts | 53° |
| 2026-04-27 13:10 | 32.59359 | 133.29282 | 34977 ft | 515 kts | 53° |
| 2026-04-27 13:11 | 32.63103 | 133.36542 | 34976 ft | 515 kts | 53° |
| 2026-04-27 13:11 | 32.66837 | 133.43820 | 34971 ft | 516 kts | 54° |
| 2026-04-27 13:12 | 32.70482 | 133.51134 | 34970 ft | 517 kts | 54° |
| 2026-04-27 13:12 | 32.74135 | 133.58488 | 34967 ft | 517 kts | 54° |
| 2026-04-27 13:13 | 32.77798 | 133.65852 | 34971 ft | 517 kts | 54° |
| 2026-04-27 13:13 | 32.81462 | 133.73227 | 34965 ft | 518 kts | 54° |
| 2026-04-27 13:14 | 32.85102 | 133.80568 | 34964 ft | 519 kts | 54° |
| 2026-04-27 13:14 | 32.88768 | 133.87974 | 34972 ft | 520 kts | 54° |
| 2026-04-27 13:15 | 32.92434 | 133.95398 | 34971 ft | 520 kts | 54° |
| 2026-04-27 13:15 | 32.96100 | 134.02836 | 34971 ft | 521 kts | 54° |
| 2026-04-27 13:16 | 32.99775 | 134.10308 | 34973 ft | 522 kts | 54° |
| 2026-04-27 13:16 | 33.03425 | 134.17744 | 34977 ft | 523 kts | 54° |
| 2026-04-27 13:17 | 33.07692 | 134.24617 | 34900 ft | 510 kts | 39° |
| 2026-04-27 13:17 | 33.10233 | 134.27549 | 34588 ft | 503 kts | 32° |
| 2026-04-27 13:17 | 33.12903 | 134.30252 | 34174 ft | 503 kts | 32° |
| 2026-04-27 13:18 | 33.15567 | 134.32962 | 33728 ft | 503 kts | 32° |
| 2026-04-27 13:18 | 33.18235 | 134.35686 | 33261 ft | 505 kts | 32° |
| 2026-04-27 13:18 | 33.20909 | 134.38420 | 32805 ft | 506 kts | 32° |
| 2026-04-27 13:18 | 33.23555 | 134.41129 | 32219 ft | 508 kts | 32° |
| 2026-04-27 13:19 | 33.26248 | 134.43885 | 31354 ft | 511 kts | 32° |
| 2026-04-27 13:19 | 33.28975 | 134.46677 | 30386 ft | 516 kts | 32° |
| 2026-04-27 13:19 | 33.31688 | 134.49464 | 29754 ft | 510 kts | 32° |
| 2026-04-27 13:19 | 33.34353 | 134.52211 | 29229 ft | 502 kts | 32° |
| 2026-04-27 13:20 | 33.36983 | 134.54920 | 28642 ft | 495 kts | 32° |
| 2026-04-27 13:20 | 33.39554 | 134.57567 | 28067 ft | 489 kts | 32° |
| 2026-04-27 13:20 | 33.42116 | 134.60204 | 27502 ft | 483 kts | 32° |
| 2026-04-27 13:20 | 33.44658 | 134.62820 | 26932 ft | 477 kts | 32° |
| 2026-04-27 13:21 | 33.47167 | 134.65404 | 26370 ft | 472 kts | 32° |
| 2026-04-27 13:21 | 33.49648 | 134.67961 | 25809 ft | 467 kts | 32° |
| 2026-04-27 13:21 | 33.52069 | 134.70459 | 25243 ft | 463 kts | 32° |
| 2026-04-27 13:21 | 33.54534 | 134.73005 | 24701 ft | 459 kts | 32° |
| 2026-04-27 13:22 | 33.56917 | 134.75467 | 24162 ft | 456 kts | 33° |
| 2026-04-27 13:22 | 33.59356 | 134.77868 | 23608 ft | 447 kts | 27° |
| 2026-04-27 13:22 | 33.61948 | 134.79866 | 22991 ft | 437 kts | 22° |
| 2026-04-27 13:22 | 33.64526 | 134.81751 | 22517 ft | 430 kts | 22° |
| 2026-04-27 13:23 | 33.67061 | 134.83617 | 21997 ft | 425 kts | 23° |
| 2026-04-27 13:23 | 33.69564 | 134.85461 | 21485 ft | 420 kts | 23° |
| 2026-04-27 13:23 | 33.72043 | 134.87290 | 20979 ft | 415 kts | 23° |
| 2026-04-27 13:23 | 33.74488 | 134.89094 | 20472 ft | 410 kts | 23° |
| 2026-04-27 13:24 | 33.76880 | 134.90858 | 19986 ft | 406 kts | 24° |
| 2026-04-27 13:24 | 33.79275 | 134.92626 | 19490 ft | 402 kts | 24° |
| 2026-04-27 13:24 | 33.81650 | 134.94380 | 18998 ft | 398 kts | 24° |
| 2026-04-27 13:24 | 33.84003 | 134.96119 | 18481 ft | 395 kts | 24° |
| 2026-04-27 13:25 | 33.86337 | 134.97845 | 17989 ft | 391 kts | 24° |
| 2026-04-27 13:25 | 33.88645 | 134.99555 | 17495 ft | 386 kts | 25° |
| 2026-04-27 13:25 | 33.90918 | 135.01241 | 17028 ft | 381 kts | 25° |
| 2026-04-27 13:25 | 33.93162 | 135.02905 | 16559 ft | 377 kts | 25° |
| 2026-04-27 13:26 | 33.95382 | 135.04553 | 16086 ft | 373 kts | 25° |
| 2026-04-27 13:26 | 33.97579 | 135.06184 | 15634 ft | 369 kts | 25° |
| 2026-04-27 13:26 | 33.99023 | 135.07256 | 15329 ft | 367 kts | 26° |
| 2026-04-27 13:27 | 34.03924 | 135.10899 | 14266 ft | 361 kts | 26° |
| 2026-04-27 13:27 | 34.06055 | 135.12485 | 13772 ft | 359 kts | 26° |
| 2026-04-27 13:27 | 34.08161 | 135.14052 | 13256 ft | 359 kts | 27° |
| 2026-04-27 13:27 | 34.10293 | 135.15638 | 12850 ft | 362 kts | 27° |
| 2026-04-27 13:28 | 34.12432 | 135.17230 | 12461 ft | 359 kts | 27° |
| 2026-04-27 13:28 | 34.14512 | 135.18788 | 12294 ft | 342 kts | 27° |
| 2026-04-27 13:28 | 34.16477 | 135.20265 | 12111 ft | 323 kts | 27° |
| 2026-04-27 13:28 | 34.18351 | 135.21671 | 11723 ft | 313 kts | 27° |
| 2026-04-27 13:29 | 34.20193 | 135.23045 | 11212 ft | 308 kts | 27° |
| 2026-04-27 13:29 | 34.22008 | 135.24397 | 10680 ft | 304 kts | 28° |
| 2026-04-27 13:29 | 34.23771 | 135.25771 | 10198 ft | 299 kts | 31° |
| 2026-04-27 13:29 | 34.25485 | 135.27182 | 9971 ft | 300 kts | 31° |
| 2026-04-27 13:30 | 34.27195 | 135.28603 | 9839 ft | 294 kts | 32° |
| 2026-04-27 13:30 | 34.28846 | 135.29973 | 9666 ft | 288 kts | 31° |
| 2026-04-27 13:30 | 34.30527 | 135.31358 | 9472 ft | 292 kts | 31° |
| 2026-04-27 13:30 | 34.32203 | 135.32731 | 9214 ft | 292 kts | 31° |
| 2026-04-27 13:31 | 34.33838 | 135.34076 | 9067 ft | 276 kts | 31° |
| 2026-04-27 13:31 | 34.35396 | 135.35362 | 8681 ft | 267 kts | 31° |
| 2026-04-27 13:31 | 34.36416 | 135.36200 | 8422 ft | 266 kts | 31° |
| 2026-04-27 13:31 | 34.37260 | 135.36894 | 8161 ft | 264 kts | 31° |
| 2026-04-27 13:32 | 34.38781 | 135.38140 | 7810 ft | 265 kts | 31° |
| 2026-04-27 13:32 | 34.40307 | 135.39390 | 7539 ft | 265 kts | 31° |
| 2026-04-27 13:32 | 34.41820 | 135.40629 | 7399 ft | 260 kts | 31° |
| 2026-04-27 13:32 | 34.43290 | 135.41868 | 7077 ft | 257 kts | 36° |
| 2026-04-27 13:33 | 34.44524 | 135.43438 | 6636 ft | 258 kts | 52° |
| 2026-04-27 13:33 | 34.45421 | 135.45324 | 6314 ft | 259 kts | 58° |
| 2026-04-27 13:33 | 34.46292 | 135.47246 | 5994 ft | 260 kts | 58° |
| 2026-04-27 13:33 | 34.47158 | 135.49128 | 5691 ft | 259 kts | 58° |
| 2026-04-27 13:34 | 34.48034 | 135.51026 | 5386 ft | 257 kts | 58° |
| 2026-04-27 13:34 | 34.48904 | 135.52913 | 5098 ft | 256 kts | 58° |
| 2026-04-27 13:34 | 34.49769 | 135.54791 | 4795 ft | 253 kts | 58° |
| 2026-04-27 13:34 | 34.50628 | 135.56659 | 4509 ft | 253 kts | 58° |
| 2026-04-27 13:35 | 34.51471 | 135.58492 | 4406 ft | 243 kts | 58° |
| 2026-04-27 13:35 | 34.52267 | 135.60231 | 4265 ft | 228 kts | 58° |
| 2026-04-27 13:35 | 34.53021 | 135.61877 | 4129 ft | 220 kts | 58° |
| 2026-04-27 13:35 | 34.53754 | 135.63473 | 4005 ft | 212 kts | 58° |
| 2026-04-27 13:36 | 34.54604 | 135.64858 | 3899 ft | 199 kts | 33° |
| 2026-04-27 13:36 | 34.55829 | 135.65411 | 3742 ft | 188 kts | 359° |
| 2026-04-27 13:36 | 34.57118 | 135.65415 | 3562 ft | 184 kts | 357° |
| 2026-04-27 13:36 | 34.58381 | 135.65405 | 3460 ft | 181 kts | 357° |
| 2026-04-27 13:37 | 34.59693 | 135.65380 | 3490 ft | 190 kts | 352° |
| 2026-04-27 13:37 | 34.60895 | 135.64828 | 3523 ft | 186 kts | 324° |
| 2026-04-27 13:37 | 34.61873 | 135.63815 | 3447 ft | 186 kts | 314° |
| 2026-04-27 13:37 | 34.62769 | 135.62699 | 3358 ft | 182 kts | 313° |
| 2026-04-27 13:38 | 34.63621 | 135.61670 | 3242 ft | 161 kts | 314° |
| 2026-04-27 13:38 | 34.64365 | 135.60770 | 3156 ft | 142 kts | 313° |
| 2026-04-27 13:38 | 34.65065 | 135.59919 | 3106 ft | 145 kts | 313° |
| 2026-04-27 13:38 | 34.65773 | 135.59061 | 3053 ft | 143 kts | 314° |
| 2026-04-27 13:39 | 34.66481 | 135.58207 | 2913 ft | 144 kts | 314° |
| 2026-04-27 13:39 | 34.67191 | 135.57346 | 2756 ft | 144 kts | 314° |
| 2026-04-27 13:39 | 34.67902 | 135.56485 | 2579 ft | 144 kts | 314° |
| 2026-04-27 13:39 | 34.68612 | 135.55625 | 2401 ft | 144 kts | 314° |
| 2026-04-27 13:40 | 34.69323 | 135.54763 | 2213 ft | 144 kts | 314° |
| 2026-04-27 13:40 | 34.70036 | 135.53898 | 2025 ft | 144 kts | 314° |
| 2026-04-27 13:40 | 34.70749 | 135.53035 | 1832 ft | 145 kts | 315° |
| 2026-04-27 13:40 | 34.71456 | 135.52177 | 1638 ft | 145 kts | 315° |
| 2026-04-27 13:41 | 34.72171 | 135.51310 | 1441 ft | 144 kts | 315° |
| 2026-04-27 13:41 | 34.72853 | 135.50482 | 1256 ft | 132 kts | 315° |
| 2026-04-27 13:41 | 34.73502 | 135.49696 | 1078 ft | 133 kts | 315° |
| 2026-04-27 13:41 | 34.74152 | 135.48904 | 886 ft | 131 kts | 315° |
| 2026-04-27 13:42 | 34.74797 | 135.48114 | 689 ft | 131 kts | 315° |
| 2026-04-27 13:42 | 34.75437 | 135.47336 | 534 ft | 131 kts | 316° |
| 2026-04-27 13:42 | 34.76094 | 135.46560 | 381 ft | 132 kts | 316° |
| 2026-04-27 13:42 | 34.76736 | 135.45778 | 232 ft | 131 kts | 316° |
| 2026-04-27 13:43 | 34.77379 | 135.44991 | 70 ft | 131 kts | 316° |
| 2026-04-27 13:43 | 34.77967 | 135.44282 | 48 ft | 94 kts | 314° |
| 2026-04-27 13:43 | 34.78289 | 135.43890 | 48 ft | 36 kts | 315° |
| 2026-04-27 13:43 | 34.78483 | 135.43734 | 48 ft | 32 kts | 340° |
| 2026-04-27 13:44 | 34.78660 | 135.43689 | 48 ft | 16 kts | 5° |
| 2026-04-27 13:44 | 34.78766 | 135.43756 | 47 ft | 18 kts | 43° |
| 2026-04-27 13:44 | 34.78847 | 135.43853 | 47 ft | 13 kts | 45° |
| 2026-04-27 13:44 | 34.78880 | 135.43938 | 48 ft | 12 kts | 96° |
| 2026-04-27 13:45 | 34.78842 | 135.44007 | 48 ft | 8 kts | 135° |
| 2026-04-27 13:45 | 34.78815 | 135.44054 | 48 ft | 6 kts | 88° |
| 2026-04-27 13:45 | 34.78837 | 135.44100 | 47 ft | 5 kts | 54° |
| 2026-04-27 13:45 | 34.78854 | 135.44129 | 48 ft | 3 kts | 54° |
| 2026-04-27 13:46 | 34.78856 | 135.44132 | 48 ft | 0 kts | 54° |